Draper, Virginia
Current Conditions -  °F | °C
As of 7:15 AM on Wednesday 28 Jan 2015 (Local Time) from KPSK Reporting Station
Scattered Clouds Scattered Clouds  
Wind Chill: 12°   Ceiling: Unl
Heat Index: 20°   Visibility: 10mi
Dew Point: 15°   Wind: 7mph
Humidity: 78%   Direction: 310°NW
Pressure: 30.19"   Gusts: NA
Location:  37.01°N, 80.75°W
Report Text: KPSK 281215Z AUTO 31006KT 10SM SCT023 M06/M10 A3019 RMK AO2 T10641097
Loading
Personal Weather Stations






























Interactive Weather Map New forecast layout! Learn more

10-Day Weather Forecast

Advertisements
Track Severe Weather on mobile